Airfield :
LOGIN :

Register | Disclaimer

   EN    FR    IT 

 










Legend :    VFR   Marginal VFR   IFR   Intensive IFR   Very Intensive IFR
Visi :
Ceiling :
>= 8 km
>= 3000ft
5 to 8 km
1000 to 3000 ft
1500m to 5 km
500 to 1000 ft
800 to 1500m
200 to 500 ft
< 800m
< 200 ft
Symbols :   Thunderstorms  Fog  Heavy snow  Heavy precipitations  Wind > 20 kt
SIGMETs :     Misc.  Thunderstorms  Icing  Turbulence  Mountain Waves  Volcanic Ashes







- Airport Elevation : 436 ft
- IATA code : BTS


LZIB - Bratislava

CURRENT METAR :
  • 261200Z 21012KT 170V260 9999 FEW037 SCT058 21/12 Q1004 NOSIG

EXPIRED METARs :
  • 261130Z 21013KT 9999 FEW031 SCT054 21/13 Q1004 NOSIG
  • 261100Z 21011KT 9999 FEW031 SCT060 20/13 Q1004 NOSIG
  • 261030Z 22011KT 180V240 9999 -RA FEW031 SCT040 BKN057 19/13 Q1004 NOSIG
  • 261000Z 21007KT 9999 -RA FEW027 SCT060 BKN083 19/13 Q1005 NOSIG
  • 260930Z 21008KT 180V240 9999 FEW032 SCT068 BKN082 19/12 Q1005 NOSIG

TAF TAF LZIB
Valid from the 26 at 12:00 until the 27 at 12:00 UTC


261100Z 2612/2712 22014KT 9999 SCT035 BKN060
TEMPO 2612/2622 -SHRA FEW030TCU BKN035
BECMG 2615/2617 25012KT
TEMPO 2622/2706 29016G28KT 5000 SHRA BKN025 FEW030CB
BECMG 2700/2702 30016KT
No reported NOTAMs for that airfield.



MET'MAP, your aeronautical weather chart ! - Copyright ORBIFLY December 2007 - Disclaimer

ORBIFLY MET'MAP TEAM :

Programming & Development : Alexandra Zaïnal
Concept & Development : Baudouin d'Aumeries
Co-Development & Prog : Marc-Olivier Méhu
Technical & hardware support : Manuel Goepfert

Contact : metmap@orbifly.com




SOURCES & CREDITS :

   NOAA